MDT,Max TemperatureF,Mean TemperatureF,Min TemperatureF,Max Dew PointF,MeanDew PointF,Min DewpointF,Max Humidity, Mean Humidity, Min Humidity, Max Sea Level PressureIn, Mean Sea Level PressureIn, Min Sea Level PressureIn, Max VisibilityMiles, Mean VisibilityMiles, Min VisibilityMiles, Max Wind SpeedMPH, Mean Wind SpeedMPH, Max Gust SpeedMPH,PrecipitationIn, CloudCover, Events, WindDirDegrees
2013-3-1,52,36,20,23,20,15,81,56,30,30.43,30.37,30.32,10,10,10,24,8,32,0.00,0,,23
2013-3-2,60,43,25,27,24,20,88,57,26,30.45,30.31,30.17,10,10,10,14,7,18,0.00,0,,53
2013-3-3,56,42,27,30,26,23,85,58,30,30.15,29.97,29.76,10,10,10,21,4,22,0.00,4,,135
2013-3-4,54,40,25,36,28,16,76,51,26,30.14,29.89,29.74,10,10,10,21,6,28,0.05,5,Rain,347
2013-3-5,55,38,20,23,16,6,88,52,15,30.30,30.20,30.12,10,10,10,12,4,15,0.00,0,,117
2013-3-6,62,44,26,25,20,14,81,49,16,30.10,29.98,29.88,10,10,10,18,5,22,0.00,0,,128
2013-3-7,64,44,24,24,18,11,81,48,14,30.03,29.91,29.83,10,10,10,24,7,31,0.00,0,,155
2013-3-8,43,38,32,36,30,18,96,63,30,29.95,29.80,29.69,10,8,1,25,5,33,0.24,7,Rain-Snow-Thunderstorm,256
2013-3-9,37,33,28,32,26,21,96,80,64,30.02,29.83,29.68,10,8,2,20,8,23,0.01,7,Snow,250
2013-3-10,47,37,27,22,17,13,66,49,31,30.20,30.12,30.03,10,10,10,26,14,37,0.00,0,,346
2013-3-11,55,38,21,25,22,17,84,56,28,30.22,30.14,30.06,10,10,10,21,8,30,0.00,0,,40
2013-3-12,60,42,24,27,24,20,88,58,28,30.25,30.19,30.13,10,10,10,18,7,30,0.00,0,,27
2013-3-13,65,45,24,26,22,18,81,49,16,30.37,30.29,30.23,10,10,10,16,5,28,0.00,0,,359
2013-3-14,70,48,25,27,23,20,75,46,17,30.36,30.27,30.19,10,10,10,15,6,20,0.00,0,,89
2013-3-15,72,50,28,26,22,17,78,46,14,30.20,30.06,29.91,10,10,10,17,5,20,T,0,,42
2013-3-16,63,48,32,33,27,23,70,47,24,29.89,29.84,29.79,10,10,10,18,6,28,0.00,2,,35
2013-3-17,62,46,29,30,20,10,78,46,14,29.81,29.75,29.66,10,10,9,28,10,38,0.00,2,,48
2013-3-18,56,40,23,17,11,4,68,41,13,30.01,29.96,29.85,10,10,10,18,7,25,0.00,0,,34
2013-3-19,57,42,26,20,14,8,59,38,16,30.18,30.06,29.96,10,10,10,20,6,30,0.00,1,,42
2013-3-20,57,39,20,29,18,12,68,45,22,30.20,30.06,29.79,10,10,10,18,5,23,0.00,3,,88
2013-3-21,61,43,24,28,16,-3,64,38,11,29.81,29.71,29.63,10,10,10,29,9,37,0.00,1,,330
2013-3-22,59,38,17,12,3,-8,62,35,7,29.83,29.72,29.58,10,10,9,29,10,39,0.00,1,,194
2013-3-23,39,27,14,7,-3,-13,51,31,11,30.17,29.94,29.72,10,10,10,26,11,41,0.00,3,,337
2013-3-24,45,28,10,4,1,-3,66,41,16,30.20,30.12,30.03,10,10,10,21,7,29,0.00,1,,25
2013-3-25,50,31,11,11,5,0,64,40,16,30.24,30.16,30.10,10,10,10,18,5,26,0.00,1,,36
2013-3-26,61,41,20,18,12,9,65,39,13,30.14,30.02,29.89,10,10,10,20,5,23,0.00,0,,131
2013-3-27,67,47,27,20,13,3,63,36,9,30.03,29.95,29.89,10,10,10,22,5,29,0.00,2,,87
2013-3-28,67,48,29,21,16,10,54,33,12,30.13,30.02,29.96,10,10,10,24,6,36,0.00,2,,124
2013-3-29,68,50,32,23,20,17,56,36,15,30.16,30.08,30.01,10,10,10,17,5,24,0.00,1,,37
2013-3-30,69,48,27,24,22,19,69,42,15,30.17,30.06,29.98,10,10,10,18,6,30,0.00,2,,22
2013-3-31,69,49,28,26,21,16,69,42,15,30.09,29.99,29.91,10,10,10,20,6,25,0.00,0,,353